Timeline UpdatesTrip UpdatesNews PostsPvt PostsTravel TipsAdmin PostsConv PostsFollowed PostsChat RequestsBlog PostsPNR Posts

Disclaimer
Search
 
 
Sat Aug 30, 2014 07:40:11 ISTHomeTrainsΣChainsAtlasPNRForumGalleryNewsFAQTripsMembersLoginFeedback
No Recent News for this Train
Other Trains in the News **new
Latest...
Last run over.
Tue Jul 01, 2014 (04:19PM)
⇐ Return Journey: Train# 13112

13111/Lal Quila Express

TRAIN IS CANCELLED
Change Departure Station:
Change Arrival Station:
Post a Train Travel TipPost a Train Travel Tip **new
Post a Comment/Question/Picture/VideoPost a Comment/Question/Picture/Video
Pantry/Catering
✕ NO Pantry Car
✓ Catering Avbl
RSA - Rake Sharing
Rake/Coach Composition
LOCO-S1-B1-SLR-GEN-S2-S3-S4-B2-GEN-GEN-RMS-SLR [S1,B1 detached at MDP] ; :Entry# 618089-32
Loco
WAP4 HOWRAH/GHAZIABAD SHED
News    PNR    Forum    Time-Table    Availability    Fare Chart    Map    Arr/Dep History    Trips    Gallery    ΣChains    X/O    Timeline    
Travel Time: 3h 12m    3 halts    Distance: 205 km    Avg Speed: 64 km/hr
Type: Mail/Express
Zone: ER/Eastern
Departs @ 20:15 (Avg on time)
Platform# 3
SMTWTFS
Kolkata Chitpur/KOAA 
Arrives @ 23:27 (Avg 31m late)
Platform# 4
SMTWTFS
Asansol Junction/ASN 

3 halts. 56 intermediate Stations between Kolkata Chitpur and Asansol Junction

Show ALL intermediate Stations  Show Old Time-Table

#CodeStation NameX/OArrivesAvgDepartsAvgHaltPFDay#KmSpeedElevZoneAddress
1KOAA»Kolkata Chitpur (5)»  -20:15+0310.0316mERKolkata, West Bengal
2DAKEDakhineswar (2)  20:34-20:35-1m119.96410mERDist - 24 paraganas ( North ), West Bengal
3BWNBarddhaman Junction (8)  21:58+2722:03+275m1198.68434mERDist - Barddhaman, West Bengal
4RNGRaniGanj (4)  23:06+3623:07+361m21186.45492mERRaniganj, West Bengal
5ASN•Asansol Junction (7)•  23:27+3123:32+325m41204.650113mERDist - bardhaman, West Bengal
6CRJChittaranjan (3)  00:02+3700:03+381m32229.766182mERMihijam, Jharkhand
7JMTJamtara (2)  00:16+3900:17+491m12244.059201mERJamtara, Jharkhand
8MDPMadhupur Junction (4)01:00+1:1401:40+1:1640m22286.073254mER06432-224478, Jharkhand
9JSMEJasidih Junction (5)  02:04+1:1902:09+1:185m22315.152271mERJasidih, Jharkhand
10JAJJhajha (4)  03:00+1:3503:05+1:355m--2359.274143mECRJhajha, Bihar
11JMUJamui (3)  03:26+1:3703:27+1:381m--2385.26881mECRState Highway 72, Bihar
12KIULKiul Junction (5)  03:51+1:2503:55+1:274m--2412.51253mECRDist. Lakhisarai, Bihar
13LKRLuckeesarai Junction (2)  04:02+1:4904:03+1:501m--2413.96552mECRLakhisarai, Bihar
14BRYABarhiya (3)  04:17+2:0204:18+2:031m--2429.05947mECRBarahiya, Bihar
15MKAMokama Junction (4)  04:36+2:0804:40+2:074m--2446.78648mECRPatna, Bihar
16BARHBarh (3)  04:58+2:1204:59+2:151m--2472.66849mECRBarh, Bihar
17BKPBakhtiyarpur Junction (5)  05:15+2:1605:19+2:214m--2490.97751mECRPatna, Bihar
18FUTFatwa (6)  05:37+2:5105:38+3:041m--2513.94653mECRPatna, Bihar
19BKGBanka Ghat (2)  05:46+3:0505:47+3:061m--2520.05356mECRPatna, Bihar
20PNCPatna Saheb (3)  05:54+3:0705:55+3:091m--2526.12059mECRPatna, Bihar
21GZHGulzarbagh (3)  06:04+3:0606:05+3:111m--2529.22855mECRPatna, Bihar
22RJPBRajendra Nagar Bihar (4)  06:14+2:2206:16+2:222m--2533.4555mECRPatna 800001, Bihar
23PNBEPatna Junction (10)  06:50+1:5707:00+2:0010m42536.03857mECRPatna 800001, Bihar
24DNRDanapur (5)  07:15+3:0007:35+3:0620m--2545.48758mECRKhagaul, Bihar
25BTABihta (2)  07:47+3:1107:48+3:161m--2562.75862mECRDistt: Patna, Bihar
26KWRKoelwar (2)  07:57-07:58-1m--2571.54365mECRNational Highway 30, Bihar
27KUAKulharia (2)  08:03+3:1608:04+3:191m--2575.05461mECRChandi Sahar Rd, Bihar
28ARAAra Junction (3)  08:15+2:4008:20+2:385m--2584.99263mECRarrah( 06182-233411), Bihar
29BEABihiya (3)  08:34+3:2608:35+3:381m--2606.35167mECRBehea, Bihar
30BYNBanahi (2)  08:42+3:4108:43+3:411m--2612.35967mECRBanahi, Bihar
31RPRRaghunathpur (4)  08:52+3:5708:53+3:581m--2621.17469mECRRaghunathpur, Bihar
32DUREDumraon (3)  09:06+2:4009:07+3:011m--2637.12970mECRDumraon, Bihar
33BXRBuxar (3)  09:41+4:0309:46+4:185m22653.47367mECRBuxar, Bihar
34CSAChausa (2)  09:55+3:4109:56+3:461m--2664.44368mECRState Highway 14, Bihar
35GMRGahmar (2)  10:09+4:2110:10+4:221m--2673.63868mECRDistt: Ghazipur, Uttar Pradesh
36BWHBhadaura (2)  10:23+4:1710:24+4:181m--2681.84769mECRGhazipur, Uttar Pradesh
37DLNDildarnagar Junction (2)  10:34+4:1610:36+4:152m--2689.64072mECRDildarnagar, Uttar Pradesh
38ZNAZamania (2)  10:56+4:0610:57+4:121m--2703.13877mECRGhazipur, Uttar Pradesh
39MGSMughal Sarai Junction (8)  12:07+2:2812:27+2:2820m42747.35383mECRMughalsarai 232101, Uttar Pradesh
40CARChunar Junction (5)  13:03+4:4313:04+4:511m22779.25485mNCRChunar Junction, Uttar Pradesh
41MZPMirzapur (3)  13:39+5:1613:40+5:201m--2810.54088mNCRMirzapur, Uttar Pradesh
42BDLVindhyachal (3)  13:51+5:2013:52+5:211m--2817.87288mNCRMirzapur, Uttar Pradesh
43MNFManda Road  14:15+4:2114:16+4:211m--2845.46593mNCRNH 76, Uttar Pradesh
44MJAMeja Road (4)  14:31+5:3114:32+5:351m--2861.67294mNCRDistrict Allahabad, Uttar Pradesh
45NYNNaini Junction (4)  14:58+5:3915:00+5:392m22892.62198mNCRAllahabad, Uttar Pradesh
46ALDAllahabad Junction (10)  15:20+3:1415:30+3:1610m32899.760100mNCRAllahabad 211003, Uttar Pradesh
47BREBharwari  16:07+5:1616:08+5:221m--2936.864108mNCRBharwari, Uttar Pradesh
48SROSirathu (2)  16:27+4:0116:28+4:021m12956.978109mNCRSirathu, Uttar Pradesh
49KGAKhaga (3)  16:47+5:2516:48+5:261m--2981.767114mNCRFatehpur, Uttar Pradesh
50RUBRasulabad  17:01+5:2717:02+5:341m--2996.355118mNCRRasulabad, Uttar Pradesh
51FTPFatehpur (3)  17:24+5:3117:25+5:331m321016.469120mNCRFatehpur, Uttar Pradesh
52MWHMalwan (2)  17:39+5:3617:40+5:381m--21032.665122mNCRFatehpur, Uttar Pradesh
53BKOBindki Road  17:54+5:5717:55+6:131m--21047.753124mNCRFatehpur, Uttar Pradesh
54KBNKarbigwan  18:09+6:1218:10+6:311m--21060.045121mNCRFatehpur, Uttar Pradesh
55CNBKanpur Central (10)  18:55+3:1419:05+3:1710m--21094.019128mNCRKANPUR-208 001, Uttar Pradesh
56GOYGovindpuri Junction (2)  19:17+6:3919:18+6:401m121097.846129mNCRKANPUR-208 006, Uttar Pradesh
57PNKPanki (3)  19:28+6:4019:29+6:431m--21105.578129mNCRKANPUR-208 020, Uttar Pradesh
58PHDPhaphund (4)  20:24+3:2920:25+3:361m321177.199146mNCRdist. Auraiya, Uttar Pradesh
59ETWEtawah (5)  20:59+5:5521:00+5:591m221233.385154mNCRDistt. Etawah, Uttar Pradesh
60SKBShikohabad Junction (4)  21:39+7:3921:40+7:461m321288.729166mNCRDistrict Firozabad, Uttar Pradesh
61FZDFirozabad (4)  22:21+7:2222:22+7:231m321308.643164mNCRFirozabad, Uttar Pradesh
62TDLTundla Junction (5)  22:45+7:2722:55+7:2110m221325.182167mNCRDistt.Firozabad, Uttar Pradesh
63HRSHathras Junction (3)  23:30+7:3523:31+7:371m--21373.167183mNCRMahamaya Nagar(05722-242803), Uttar Pradesh
64ALJNAligarh Junction (4)  23:58+5:0500:03+5:255m321403.371192mNCRAligarh, Uttar Pradesh
65KRJKhurja Junction (4)  00:40+6:5700:45+6:545m231446.838199mNCRBulandshahr, Uttar Pradesh
66GZBGhaziabad Junction (6)  02:23+4:0002:25+4:002m531509.427217mNRGhaziabad, Uttar Pradesh
67DLIOld Delhi Junction (16)  03:10+4:54-731529.5-219mNRNear Chandni Chowk Metro Station, Delhi NCT
Scroll to Top
Scroll to Bottom